Time;durP1;ratioP1;P1;durP2;ratioP2;P2;SDS_P1;SDS_P2;PMS_P1;PMS_P2;Temp;Humidity;BMP_temperature;BMP_pressure;BME280_temperature;BME280_humidity;BME280_pressure;Samples;Min_cycle;Max_cycle;Signal;HPM_P1;HPM_P2
2021/12/07 00:01:12;;;;;;;;;;;6.50;99.90;;;;;;4990320;28;19917;-60
2021/12/07 00:03:38;;;;;;;;;;;6.50;99.90;;;;;;4990056;28;20387;-61
2021/12/07 00:06:03;;;;;;;;;;;6.50;99.90;;;;;;4992335;28;19910;-60
2021/12/07 00:08:29;;;;;;;;;;;6.50;99.90;;;;;;4991778;28;19997;-60
2021/12/07 00:10:55;;;;;;;;;;;6.60;99.90;;;;;;4989582;28;19965;-60
2021/12/07 00:13:21;;;;;;;;;;;6.60;99.90;;;;;;4989685;28;19921;-60
2021/12/07 00:15:47;;;;;;;;;;;6.60;99.90;;;;;;4978389;28;20671;-61
2021/12/07 00:18:12;;;;;;;;;;;6.60;99.90;;;;;;4992204;28;20016;-60
2021/12/07 00:20:38;;;;;;;;;;;6.60;99.90;;;;;;4990687;28;20295;-58
2021/12/07 00:23:05;;;;;;;;;;;6.60;99.90;;;;;;4991068;28;19937;-60
2021/12/07 00:25:31;;;;;;;;;;;6.60;99.90;;;;;;4989469;28;19914;-60
2021/12/07 00:27:56;;;;;;;;;;;6.60;99.90;;;;;;4989977;28;19914;-61
2021/12/07 00:30:27;;;;;;;;;;;6.60;99.90;;;;;;4990434;28;20005;-60
2021/12/07 00:33:07;;;;;;;;;;;6.60;99.90;;;;;;4992687;28;19921;-61
2021/12/07 00:35:35;;;;;;;;;;;6.60;99.90;;;;;;4991745;28;19924;-63
2021/12/07 00:38:04;;;;;;;;;;;6.60;99.90;;;;;;4991226;28;19914;-60
2021/12/07 00:40:30;;;;;;;;;;;6.70;99.90;;;;;;4989630;28;20008;-60
2021/12/07 00:42:55;;;;;;;;;;;6.70;99.90;;;;;;4989300;28;20001;-60
2021/12/07 00:45:22;;;;;;;;;;;6.70;99.90;;;;;;4990304;28;19918;-60
2021/12/07 00:47:49;;;;;;;;;;;6.70;99.90;;;;;;4992520;28;19993;-60
2021/12/07 00:50:14;;;;;;;;;;;6.70;99.90;;;;;;4981810;28;19945;-60
2021/12/07 00:52:40;;;;;;;;;;;6.70;99.90;;;;;;4983418;28;19918;-60
2021/12/07 00:55:08;;;;;;;;;;;6.70;99.90;;;;;;4989254;28;19909;-59
2021/12/07 00:57:34;;;;;;;;;;;6.70;99.90;;;;;;4988128;28;20353;-60
2021/12/07 01:00:00;;;;;;;;;;;6.70;99.90;;;;;;4991592;28;20389;-61
2021/12/07 01:02:25;;;;;;;;;;;6.70;99.90;;;;;;4989553;28;19910;-60
2021/12/07 01:04:57;;;;;;;;;;;6.70;99.90;;;;;;4988484;28;19917;-60
2021/12/07 01:07:52;;;;;;;;;;;6.70;99.90;;;;;;4988931;28;19922;-60
2021/12/07 01:26:37;;;;;;;;;;;6.40;99.90;;;;;;4990970;28;20441;-61
2021/12/07 01:29:02;;;;;;;;;;;6.40;99.90;;;;;;4988830;28;19914;-61
2021/12/07 01:37:31;;;;;;;;;;;6.40;99.90;;;;;;5009024;28;19976;-60
2021/12/07 01:45:39;;;;;;;;;;;6.20;99.90;;;;;;5008583;28;19949;-60
2021/12/07 02:00:50;;;;;;;;;;;6.00;99.90;;;;;;5009050;28;20363;-59
2021/12/07 02:03:16;;;;;;;;;;;6.00;99.90;;;;;;5007922;28;19940;-60
2021/12/07 02:05:42;;;;;;;;;;;5.90;99.90;;;;;;5008809;28;19914;-59
2021/12/07 02:08:07;;;;;;;;;;;6.00;99.90;;;;;;5008203;28;19914;-60
2021/12/07 02:10:33;;;;;;;;;;;6.00;99.90;;;;;;4994843;28;19922;-60
2021/12/07 02:13:17;;;;;;;;;;;6.00;99.90;;;;;;4992590;28;19914;-59
2021/12/07 02:15:43;;;;;;;;;;;6.00;99.90;;;;;;4978965;28;19914;-59
2021/12/07 02:18:09;;;;;;;;;;;6.00;99.90;;;;;;4994142;28;19910;-60
2021/12/07 02:20:35;;;;;;;;;;;6.00;99.90;;;;;;4993714;28;19910;-60
2021/12/07 02:23:00;;;;;;;;;;;6.00;99.90;;;;;;4991728;28;20395;-59
2021/12/07 02:25:28;;;;;;;;;;;5.90;99.90;;;;;;4991873;28;19920;-60
2021/12/07 02:27:54;;;;;;;;;;;5.90;99.90;;;;;;4992025;28;19921;-60
2021/12/07 02:30:22;;;;;;;;;;;5.80;99.90;;;;;;4993038;28;19948;-60
2021/12/07 02:32:47;;;;;;;;;;;5.80;99.90;;;;;;4994342;28;20383;-60
2021/12/07 02:35:21;;;;;;;;;;;5.80;99.90;;;;;;4991553;28;19961;-61
2021/12/07 02:37:46;;;;;;;;;;;5.70;99.90;;;;;;4991389;28;19920;-61
2021/12/07 02:40:12;;;;;;;;;;;5.80;99.90;;;;;;4991869;28;19922;-59
2021/12/07 02:42:38;;;;;;;;;;;5.70;99.90;;;;;;4992020;28;20359;-61
2021/12/07 02:45:05;;;;;;;;;;;5.70;99.90;;;;;;4993912;28;19933;-59
2021/12/07 02:47:32;;;;;;;;;;;5.60;99.90;;;;;;4986545;28;19918;-60
2021/12/07 02:49:58;;;;;;;;;;;5.60;99.90;;;;;;4987865;28;19922;-60
2021/12/07 02:52:23;;;;;;;;;;;5.50;99.90;;;;;;4991595;28;19949;-60
2021/12/07 02:54:50;;;;;;;;;;;5.50;99.90;;;;;;4991653;28;19922;-60
2021/12/07 02:57:18;;;;;;;;;;;5.40;99.90;;;;;;4993458;28;19910;-60
2021/12/07 02:59:52;;;;;;;;;;;5.30;99.90;;;;;;4993061;28;19918;-61
2021/12/07 03:02:19;;;;;;;;;;;5.30;99.90;;;;;;4991162;28;19914;-61
2021/12/07 03:26:24;;;;;;;;;;;5.10;99.90;;;;;;4991152;28;20045;-59
2021/12/07 03:28:50;;;;;;;;;;;5.00;99.90;;;;;;4989993;28;20005;-61
2021/12/07 03:31:17;;;;;;;;;;;5.00;99.90;;;;;;4990588;28;19944;-60
2021/12/07 03:33:42;;;;;;;;;;;4.90;99.90;;;;;;4990718;28;19954;-60
2021/12/07 03:36:09;;;;;;;;;;;4.90;99.90;;;;;;4993474;28;19965;-60
2021/12/07 03:38:35;;;;;;;;;;;4.90;99.90;;;;;;4991713;28;19909;-64
2021/12/07 03:41:00;;;;;;;;;;;5.00;99.90;;;;;;4990602;28;19914;-61
2021/12/07 03:43:26;;;;;;;;;;;5.00;99.90;;;;;;4988506;28;20401;-61
2021/12/07 03:45:51;;;;;;;;;;;5.00;99.90;;;;;;4990512;28;19921;-60
2021/12/07 03:48:17;;;;;;;;;;;5.10;99.90;;;;;;4991988;28;20268;-61
2021/12/07 03:50:43;;;;;;;;;;;5.00;99.90;;;;;;4992382;28;20302;-60
2021/12/07 03:53:09;;;;;;;;;;;5.10;99.90;;;;;;4991702;28;19914;-61
2021/12/07 03:55:35;;;;;;;;;;;5.00;99.90;;;;;;4990552;28;20411;-61
2021/12/07 03:58:01;;;;;;;;;;;5.00;99.90;;;;;;4989769;28;20367;-60
2021/12/07 04:00:27;;;;;;;;;;;5.00;99.90;;;;;;4990654;28;19914;-59
2021/12/07 04:02:54;;;;;;;;;;;5.00;99.90;;;;;;4993247;28;19956;-59
2021/12/07 04:05:21;;;;;;;;;;;4.90;99.90;;;;;;4990287;28;20276;-60
2021/12/07 04:07:46;;;;;;;;;;;4.90;99.90;;;;;;4989869;28;19945;-59
2021/12/07 04:10:13;;;;;;;;;;;4.80;99.90;;;;;;4989846;28;19965;-59
2021/12/07 04:12:39;;;;;;;;;;;4.80;99.90;;;;;;4990127;28;19925;-61
2021/12/07 04:15:06;;;;;;;;;;;4.70;99.90;;;;;;4992536;28;19910;-59
2021/12/07 04:17:32;;;;;;;;;;;4.70;99.90;;;;;;4991983;28;19914;-61
2021/12/07 04:19:57;;;;;;;;;;;4.70;99.90;;;;;;4990074;28;19960;-60
2021/12/07 04:22:23;;;;;;;;;;;4.70;99.90;;;;;;4989954;28;19941;-60
2021/12/07 04:24:48;;;;;;;;;;;4.60;99.90;;;;;;4989904;28;19918;-59
2021/12/07 04:27:14;;;;;;;;;;;4.60;99.90;;;;;;4991653;28;19913;-60
2021/12/07 04:29:39;;;;;;;;;;;4.60;99.90;;;;;;4990905;28;20005;-59
2021/12/07 04:32:05;;;;;;;;;;;4.50;99.90;;;;;;4982527;28;20335;-60
2021/12/07 04:34:30;;;;;;;;;;;4.50;99.90;;;;;;4982400;28;19914;-60
2021/12/07 04:36:56;;;;;;;;;;;4.50;99.90;;;;;;4989558;28;19914;-59
2021/12/07 04:39:22;;;;;;;;;;;4.50;99.90;;;;;;4990089;28;19953;-60
2021/12/07 04:41:49;;;;;;;;;;;4.50;99.90;;;;;;4988749;28;19917;-60
2021/12/07 04:44:14;;;;;;;;;;;4.50;99.90;;;;;;4989362;28;19914;-60
2021/12/07 04:46:49;;;;;;;;;;;4.50;99.90;;;;;;4989198;28;20279;-59
2021/12/07 05:00:07;;;;;;;;;;;4.40;99.90;;;;;;4988579;28;19936;-59
2021/12/07 05:02:35;;;;;;;;;;;4.40;99.90;;;;;;4986896;28;20334;-59
2021/12/07 05:05:01;;;;;;;;;;;4.40;99.90;;;;;;4985739;28;20226;-58
2021/12/07 05:07:34;;;;;;;;;;;4.40;99.90;;;;;;4989253;28;20423;-57
2021/12/07 05:15:28;;;;;;;;;;;4.30;99.90;;;;;;5027575;28;19948;-58
2021/12/07 05:39:40;;;;;;;;;;;4.20;99.90;;;;;;4911906;29;19937;-59
2021/12/07 05:42:05;;;;;;;;;;;4.20;99.90;;;;;;4912268;29;20549;-60
2021/12/07 05:44:31;;;;;;;;;;;4.20;99.90;;;;;;4911400;29;19915;-60
2021/12/07 05:46:56;;;;;;;;;;;4.20;99.90;;;;;;4912657;29;19915;-58
2021/12/07 05:49:22;;;;;;;;;;;4.10;99.90;;;;;;4911527;29;19938;-60
2021/12/07 05:51:47;;;;;;;;;;;4.10;99.90;;;;;;4897786;29;19977;-58
2021/12/07 05:54:13;;;;;;;;;;;4.10;99.90;;;;;;4874300;29;20267;-58
2021/12/07 05:56:39;;;;;;;;;;;4.10;99.90;;;;;;4874917;29;19912;-58
2021/12/07 05:59:04;;;;;;;;;;;4.10;99.90;;;;;;4873942;29;19957;-60
2021/12/07 06:01:30;;;;;;;;;;;4.10;99.90;;;;;;4895172;29;20006;-59
2021/12/07 06:03:55;;;;;;;;;;;4.10;99.90;;;;;;4927357;29;19937;-60
2021/12/07 06:06:21;;;;;;;;;;;4.10;99.90;;;;;;4928586;29;19998;-60
2021/12/07 06:08:46;;;;;;;;;;;4.00;99.90;;;;;;4960956;28;19910;-59
2021/12/07 06:11:12;;;;;;;;;;;4.00;99.90;;;;;;4982482;28;19922;-62
2021/12/07 06:13:37;;;;;;;;;;;4.00;99.90;;;;;;4988668;28;19914;-61
2021/12/07 06:16:06;;;;;;;;;;;4.00;99.90;;;;;;4987483;28;19959;-61
2021/12/07 06:18:33;;;;;;;;;;;4.00;99.90;;;;;;4977644;28;20008;-61
2021/12/07 06:20:58;;;;;;;;;;;4.10;99.90;;;;;;4990106;28;20053;-62
2021/12/07 06:23:24;;;;;;;;;;;4.00;99.90;;;;;;4976914;28;20005;-62
2021/12/07 06:25:49;;;;;;;;;;;4.10;99.90;;;;;;4983746;28;19967;-60
2021/12/07 06:28:15;;;;;;;;;;;4.00;99.90;;;;;;4982945;28;19966;-60
2021/12/07 06:30:42;;;;;;;;;;;4.10;99.90;;;;;;4980124;28;19922;-60
2021/12/07 06:33:07;;;;;;;;;;;4.00;99.90;;;;;;4989745;28;19910;-59
2021/12/07 06:35:33;;;;;;;;;;;4.00;99.90;;;;;;4988870;28;20421;-60
2021/12/07 06:37:58;;;;;;;;;;;4.00;99.90;;;;;;4987066;28;19914;-60
2021/12/07 06:40:24;;;;;;;;;;;4.00;99.90;;;;;;4987894;28;19920;-59
2021/12/07 06:42:49;;;;;;;;;;;4.00;99.90;;;;;;4987263;28;20008;-61
2021/12/07 06:45:15;;;;;;;;;;;4.00;99.90;;;;;;4989809;28;19918;-60
2021/12/07 06:47:41;;;;;;;;;;;4.00;99.90;;;;;;4988922;28;19914;-60
2021/12/07 06:50:07;;;;;;;;;;;4.10;99.90;;;;;;4987770;28;19926;-61
2021/12/07 06:52:33;;;;;;;;;;;4.10;99.90;;;;;;4986959;28;19960;-59
2021/12/07 06:54:59;;;;;;;;;;;4.00;99.90;;;;;;4987880;28;19960;-60
2021/12/07 06:57:25;;;;;;;;;;;4.10;99.90;;;;;;4991604;28;19945;-60
2021/12/07 06:59:51;;;;;;;;;;;4.10;99.90;;;;;;4994179;28;20397;-60
2021/12/07 07:02:17;;;;;;;;;;;4.10;99.90;;;;;;4991254;28;19918;-59
2021/12/07 07:04:44;;;;;;;;;;;4.20;99.90;;;;;;4991709;28;19925;-61
2021/12/07 07:07:10;;;;;;;;;;;4.20;99.90;;;;;;4990846;28;20402;-61
2021/12/07 07:09:35;;;;;;;;;;;4.20;99.90;;;;;;4991208;28;19918;-61
2021/12/07 07:12:01;;;;;;;;;;;4.30;99.90;;;;;;4994313;28;19914;-62
2021/12/07 07:14:26;;;;;;;;;;;4.40;99.90;;;;;;4991294;28;19910;-61
2021/12/07 07:16:52;;;;;;;;;;;4.40;99.90;;;;;;4992397;28;20295;-60
2021/12/07 07:19:17;;;;;;;;;;;4.40;99.90;;;;;;4991080;28;19920;-61
2021/12/07 07:21:43;;;;;;;;;;;4.50;99.90;;;;;;4990701;28;19954;-60
2021/12/07 07:24:08;;;;;;;;;;;4.50;99.90;;;;;;4993332;28;20004;-60
2021/12/07 07:26:34;;;;;;;;;;;4.50;99.90;;;;;;4991755;28;20009;-61
2021/12/07 07:28:59;;;;;;;;;;;4.60;99.90;;;;;;4990689;28;19925;-61
2021/12/07 07:31:25;;;;;;;;;;;4.60;99.90;;;;;;4990641;28;19922;-61
2021/12/07 07:33:53;;;;;;;;;;;4.60;99.90;;;;;;4991119;28;19922;-60
2021/12/07 07:36:19;;;;;;;;;;;4.60;99.90;;;;;;4991812;28;19917;-61
2021/12/07 07:38:44;;;;;;;;;;;4.60;99.90;;;;;;4992376;28;19910;-60
2021/12/07 07:41:10;;;;;;;;;;;4.60;99.90;;;;;;4990603;28;19914;-61
2021/12/07 07:43:35;;;;;;;;;;;4.60;99.90;;;;;;4990519;28;19914;-62
2021/12/07 07:46:01;;;;;;;;;;;4.70;99.90;;;;;;4990370;28;19914;-61
2021/12/07 07:48:26;;;;;;;;;;;4.70;99.90;;;;;;4991021;28;19921;-61
2021/12/07 07:50:52;;;;;;;;;;;4.70;99.90;;;;;;4992996;28;20366;-60
2021/12/07 07:53:18;;;;;;;;;;;4.70;99.90;;;;;;5005625;28;19913;-60
2021/12/07 07:55:43;;;;;;;;;;;4.70;99.90;;;;;;4990223;28;19920;-61
2021/12/07 07:58:09;;;;;;;;;;;4.80;99.90;;;;;;4989917;28;20409;-61
2021/12/07 08:00:35;;;;;;;;;;;4.80;99.90;;;;;;4990806;28;19949;-60
2021/12/07 08:03:01;;;;;;;;;;;4.80;99.90;;;;;;4993306;28;19979;-60
2021/12/07 08:05:27;;;;;;;;;;;4.80;99.90;;;;;;4989920;28;19909;-60
2021/12/07 08:07:52;;;;;;;;;;;4.80;99.90;;;;;;4990314;28;20077;-61
2021/12/07 08:10:20;;;;;;;;;;;4.80;99.90;;;;;;4989682;28;20387;-61
2021/12/07 08:12:47;;;;;;;;;;;4.70;99.90;;;;;;4990356;28;20005;-60
2021/12/07 08:15:12;;;;;;;;;;;4.80;99.90;;;;;;4992380;28;19910;-61
2021/12/07 08:17:38;;;;;;;;;;;4.70;99.90;;;;;;4989857;28;19910;-60
2021/12/07 08:20:04;;;;;;;;;;;4.70;99.90;;;;;;4989771;28;19921;-60
2021/12/07 08:22:30;;;;;;;;;;;4.70;99.90;;;;;;4989840;28;19936;-61
2021/12/07 08:24:56;;;;;;;;;;;4.70;99.90;;;;;;4990192;28;19948;-61
2021/12/07 08:27:22;;;;;;;;;;;4.70;99.90;;;;;;4990918;28;19914;-60
2021/12/07 08:29:47;;;;;;;;;;;4.60;99.90;;;;;;4991956;28;19917;-61
2021/12/07 08:32:13;;;;;;;;;;;4.60;99.90;;;;;;4989573;28;19918;-61
2021/12/07 08:34:38;;;;;;;;;;;4.60;99.90;;;;;;4989562;28;19917;-60
2021/12/07 08:37:04;;;;;;;;;;;4.60;99.90;;;;;;4989803;28;19913;-60
2021/12/07 08:39:30;;;;;;;;;;;4.70;99.90;;;;;;4989769;28;19918;-60
2021/12/07 08:41:55;;;;;;;;;;;4.70;99.90;;;;;;4992831;28;19914;-59
2021/12/07 08:44:21;;;;;;;;;;;4.70;99.90;;;;;;4989244;28;20397;-61
2021/12/07 08:46:46;;;;;;;;;;;4.80;99.90;;;;;;4989579;28;20386;-61
2021/12/07 08:49:12;;;;;;;;;;;4.80;99.90;;;;;;4988944;28;19914;-61
2021/12/07 08:51:39;;;;;;;;;;;4.80;99.90;;;;;;4989234;28;20515;-59
2021/12/07 08:59:45;;;;;;;;;;;4.70;99.90;;;;;;4991387;28;19989;-60
2021/12/07 09:02:15;;;;;;;;;;;4.70;99.90;;;;;;4988715;28;19917;-61
2021/12/07 09:04:41;;;;;;;;;;;4.60;99.90;;;;;;4989251;28;19921;-59
2021/12/07 09:07:06;;;;;;;;;;;4.60;99.90;;;;;;4987581;28;19909;-61
2021/12/07 09:09:33;;;;;;;;;;;4.70;99.90;;;;;;4988727;28;19917;-58
2021/12/07 09:11:58;;;;;;;;;;;4.70;99.90;;;;;;4992097;28;19940;-57
2021/12/07 09:14:25;;;;;;;;;;;4.70;99.90;;;;;;4988635;28;20359;-59
2021/12/07 09:16:50;;;;;;;;;;;4.70;99.90;;;;;;4988139;28;19920;-59
2021/12/07 09:19:16;;;;;;;;;;;4.50;99.90;;;;;;4985232;28;19910;-59
2021/12/07 09:21:42;;;;;;;;;;;4.50;99.90;;;;;;4981417;28;20004;-58
2021/12/07 09:24:08;;;;;;;;;;;4.50;99.90;;;;;;4977161;28;19914;-59
2021/12/07 09:26:33;;;;;;;;;;;4.60;99.90;;;;;;4980267;28;20000;-59
2021/12/07 09:28:59;;;;;;;;;;;4.50;99.90;;;;;;4984026;28;19913;-58
2021/12/07 09:31:25;;;;;;;;;;;4.50;99.90;;;;;;4982477;28;19976;-60
2021/12/07 09:33:51;;;;;;;;;;;4.50;99.90;;;;;;4981699;28;19921;-59
2021/12/07 09:36:17;;;;;;;;;;;4.50;99.90;;;;;;4979165;28;19914;-59
2021/12/07 09:38:43;;;;;;;;;;;4.50;99.90;;;;;;4979939;28;20044;-59
2021/12/07 09:41:09;;;;;;;;;;;4.60;99.90;;;;;;4980986;28;19918;-58
2021/12/07 09:43:36;;;;;;;;;;;4.60;99.90;;;;;;4981332;28;20279;-58
2021/12/07 09:46:02;;;;;;;;;;;4.70;99.90;;;;;;4983867;28;19914;-60
2021/12/07 09:48:28;;;;;;;;;;;4.70;99.90;;;;;;4979031;28;19921;-58
2021/12/07 09:50:54;;;;;;;;;;;4.80;99.90;;;;;;4981546;28;20307;-59
2021/12/07 09:53:21;;;;;;;;;;;4.70;99.90;;;;;;4978633;28;19921;-56
2021/12/07 09:55:47;;;;;;;;;;;4.70;99.90;;;;;;4981265;28;19918;-59
2021/12/07 09:58:13;;;;;;;;;;;4.70;99.90;;;;;;4977932;28;20307;-61
2021/12/07 10:00:39;;;;;;;;;;;4.70;99.90;;;;;;4978812;28;20021;-56
2021/12/07 10:03:05;;;;;;;;;;;4.80;99.90;;;;;;4985042;28;20012;-59
2021/12/07 10:05:31;;;;;;;;;;;4.90;99.90;;;;;;4978875;28;19945;-57
2021/12/07 10:07:57;;;;;;;;;;;4.90;99.90;;;;;;4981743;28;19921;-59
2021/12/07 10:10:32;;;;;;;;;;;4.90;99.90;;;;;;4979052;28;19918;-58
2021/12/07 10:12:58;;;;;;;;;;;4.90;99.90;;;;;;4980945;28;19976;-59
2021/12/07 10:15:24;;;;;;;;;;;5.00;99.90;;;;;;4978740;28;20254;-58
2021/12/07 10:17:59;;;;;;;;;;;5.10;99.90;;;;;;4986391;28;19918;-58
2021/12/07 10:20:24;;;;;;;;;;;5.10;99.90;;;;;;4978882;28;20463;-60
2021/12/07 10:22:51;;;;;;;;;;;5.10;99.90;;;;;;4982443;28;19973;-59
2021/12/07 10:25:26;;;;;;;;;;;5.20;99.90;;;;;;4978514;28;19914;-58
2021/12/07 10:27:52;;;;;;;;;;;5.20;99.90;;;;;;4979901;28;19913;-58
2021/12/07 10:30:20;;;;;;;;;;;5.20;99.90;;;;;;4978150;28;19933;-58
2021/12/07 10:32:57;;;;;;;;;;;5.30;99.90;;;;;;4984361;28;19918;-58
2021/12/07 10:35:31;;;;;;;;;;;5.30;99.90;;;;;;4986086;28;19917;-56
2021/12/07 10:38:07;;;;;;;;;;;5.40;99.90;;;;;;4987135;28;19940;-58
2021/12/07 10:40:33;;;;;;;;;;;5.40;99.90;;;;;;4985423;28;19921;-58
2021/12/07 10:42:59;;;;;;;;;;;5.40;99.90;;;;;;4983450;28;20004;-58
2021/12/07 10:45:27;;;;;;;;;;;5.50;99.90;;;;;;4982177;28;19926;-59
2021/12/07 10:47:52;;;;;;;;;;;5.50;99.90;;;;;;4983394;28;19921;-57
2021/12/07 10:50:19;;;;;;;;;;;5.60;99.90;;;;;;4981686;28;19922;-57
2021/12/07 10:52:45;;;;;;;;;;;5.60;99.90;;;;;;4983609;28;19925;-56
2021/12/07 10:55:15;;;;;;;;;;;5.60;99.90;;;;;;4981110;28;19914;-59
2021/12/07 10:57:47;;;;;;;;;;;5.60;99.90;;;;;;4981219;28;20040;-58
2021/12/07 11:00:12;;;;;;;;;;;5.70;99.90;;;;;;4983814;28;19980;-59
2021/12/07 11:02:39;;;;;;;;;;;5.70;99.90;;;;;;4982603;28;20351;-58
2021/12/07 11:05:07;;;;;;;;;;;5.80;99.90;;;;;;4981937;28;19914;-59
2021/12/07 11:07:32;;;;;;;;;;;5.80;99.90;;;;;;4986228;28;19917;-57
2021/12/07 11:10:09;;;;;;;;;;;5.90;99.90;;;;;;4983006;28;19922;-58
2021/12/07 11:12:43;;;;;;;;;;;5.90;99.90;;;;;;4980749;28;19971;-57
2021/12/07 11:15:15;;;;;;;;;;;5.90;99.90;;;;;;4980846;28;19915;-58
2021/12/07 11:17:41;;;;;;;;;;;5.90;99.90;;;;;;4986087;28;20319;-59
2021/12/07 11:20:07;;;;;;;;;;;6.00;99.90;;;;;;4981927;28;19913;-59
2021/12/07 11:22:34;;;;;;;;;;;6.10;99.90;;;;;;4982065;28;19914;-59
2021/12/07 11:25:02;;;;;;;;;;;6.10;99.90;;;;;;4982614;28;19914;-60
2021/12/07 11:30:17;;;;;;;;;;;6.20;99.90;;;;;;4980066;28;20418;-58
2021/12/07 11:32:55;;;;;;;;;;;6.20;99.90;;;;;;4982171;28;19913;-58
2021/12/07 11:35:24;;;;;;;;;;;6.20;99.90;;;;;;4980741;28;20291;-59
2021/12/07 11:37:50;;;;;;;;;;;6.30;99.90;;;;;;4983419;28;19957;-59
2021/12/07 11:40:19;;;;;;;;;;;6.40;99.90;;;;;;4980901;28;20000;-59
2021/12/07 11:42:45;;;;;;;;;;;6.40;99.90;;;;;;4982778;28;19918;-59
2021/12/07 11:45:14;;;;;;;;;;;6.40;99.90;;;;;;4983520;28;20394;-59
2021/12/07 11:47:41;;;;;;;;;;;6.40;99.90;;;;;;4981298;28;19914;-59
2021/12/07 11:50:24;;;;;;;;;;;6.40;99.90;;;;;;4981593;28;20398;-59
2021/12/07 11:52:54;;;;;;;;;;;6.50;99.90;;;;;;4982197;28;19933;-58
2021/12/07 11:55:20;;;;;;;;;;;6.50;99.90;;;;;;4980841;28;19918;-58
2021/12/07 11:57:46;;;;;;;;;;;6.50;99.90;;;;;;4980899;28;19921;-59
2021/12/07 12:00:14;;;;;;;;;;;6.50;99.90;;;;;;4981385;28;19918;-60
2021/12/07 12:02:40;;;;;;;;;;;6.50;99.90;;;;;;4981033;28;19914;-59
2021/12/07 12:05:06;;;;;;;;;;;6.60;99.90;;;;;;4983318;28;20301;-57
2021/12/07 12:07:33;;;;;;;;;;;6.60;99.90;;;;;;4979639;28;21641;-58
2021/12/07 12:09:59;;;;;;;;;;;6.60;99.90;;;;;;4980890;28;19953;-59
2021/12/07 12:12:45;;;;;;;;;;;6.70;99.90;;;;;;4981485;28;19918;-56
2021/12/07 12:15:29;;;;;;;;;;;6.70;99.90;;;;;;4985532;28;19918;-59
2021/12/07 12:18:13;;;;;;;;;;;6.70;99.90;;;;;;4988091;28;19960;-56
2021/12/07 12:20:47;;;;;;;;;;;6.70;99.90;;;;;;4980133;28;19992;-55
2021/12/07 12:23:33;;;;;;;;;;;6.70;99.90;;;;;;4979405;28;19942;-57
2021/12/07 12:26:00;;;;;;;;;;;6.70;99.90;;;;;;4981475;28;20342;-59
2021/12/07 12:28:31;;;;;;;;;;;6.70;99.90;;;;;;4980676;28;19961;-58
2021/12/07 12:30:57;;;;;;;;;;;6.70;99.90;;;;;;4979777;28;19969;-58
2021/12/07 12:33:22;;;;;;;;;;;6.80;99.90;;;;;;4979535;28;19925;-56
2021/12/07 12:35:50;;;;;;;;;;;6.80;99.90;;;;;;4981212;28;19915;-57
2021/12/07 12:38:20;;;;;;;;;;;6.80;99.90;;;;;;4979202;28;19918;-57
2021/12/07 12:40:53;;;;;;;;;;;6.90;99.90;;;;;;4982630;28;19949;-57
2021/12/07 12:43:31;;;;;;;;;;;6.90;99.90;;;;;;4978788;28;20427;-57
2021/12/07 12:46:00;;;;;;;;;;;6.90;99.90;;;;;;4981521;28;19918;-58
2021/12/07 12:48:27;;;;;;;;;;;7.00;99.90;;;;;;4984517;28;19922;-57
2021/12/07 12:50:53;;;;;;;;;;;7.00;99.90;;;;;;4980777;28;19930;-58
2021/12/07 12:53:20;;;;;;;;;;;7.00;99.90;;;;;;4983211;28;19914;-59
2021/12/07 12:55:55;;;;;;;;;;;7.00;99.90;;;;;;4980206;28;19977;-58
2021/12/07 12:58:27;;;;;;;;;;;7.00;99.90;;;;;;4978621;28;19969;-58
2021/12/07 13:00:57;;;;;;;;;;;7.00;99.90;;;;;;4981276;28;19917;-57
2021/12/07 13:03:23;;;;;;;;;;;7.10;99.90;;;;;;4984529;28;21194;-58
2021/12/07 13:06:00;;;;;;;;;;;7.10;99.90;;;;;;4980983;28;20420;-60
2021/12/07 13:08:26;;;;;;;;;;;7.10;99.90;;;;;;4978869;28;19921;-58
2021/12/07 13:10:55;;;;;;;;;;;7.10;99.90;;;;;;4984494;28;19941;-58
2021/12/07 13:13:34;;;;;;;;;;;7.10;99.90;;;;;;4977408;28;19973;-58
2021/12/07 13:16:11;;;;;;;;;;;7.10;99.90;;;;;;4981107;28;19997;-58
2021/12/07 13:18:39;;;;;;;;;;;7.10;99.90;;;;;;4985900;28;20295;-58
2021/12/07 13:21:23;;;;;;;;;;;7.00;99.90;;;;;;4981969;28;19920;-56
2021/12/07 13:24:02;;;;;;;;;;;7.00;99.90;;;;;;4979461;28;19937;-59
2021/12/07 13:26:36;;;;;;;;;;;7.00;99.90;;;;;;4984612;28;19918;-58
2021/12/07 13:29:03;;;;;;;;;;;7.00;99.90;;;;;;4979794;28;20414;-57
2021/12/07 13:31:36;;;;;;;;;;;7.00;99.90;;;;;;4979325;28;19929;-56
2021/12/07 13:34:01;;;;;;;;;;;7.10;99.90;;;;;;4986684;28;19960;-58
2021/12/07 13:36:27;;;;;;;;;;;7.10;99.90;;;;;;4980435;28;19957;-57
2021/12/07 13:38:53;;;;;;;;;;;7.20;99.90;;;;;;4983263;28;20307;-57
2021/12/07 13:41:19;;;;;;;;;;;7.20;99.90;;;;;;4985798;28;19914;-59
2021/12/07 13:43:47;;;;;;;;;;;7.20;99.90;;;;;;4981998;28;19925;-58
2021/12/07 13:46:14;;;;;;;;;;;7.20;99.90;;;;;;4983205;28;20287;-59
2021/12/07 13:48:41;;;;;;;;;;;7.20;99.90;;;;;;4980875;28;20382;-56
2021/12/07 13:51:07;;;;;;;;;;;7.30;99.90;;;;;;4978609;28;20514;-56
2021/12/07 13:53:34;;;;;;;;;;;7.20;99.90;;;;;;4978906;28;19922;-57
2021/12/07 13:56:00;;;;;;;;;;;7.30;99.90;;;;;;4981327;28;19921;-57
2021/12/07 13:58:25;;;;;;;;;;;7.30;99.90;;;;;;4980688;28;19926;-58
2021/12/07 14:00:51;;;;;;;;;;;7.30;99.90;;;;;;4978797;28;19920;-58
2021/12/07 14:03:19;;;;;;;;;;;7.30;99.90;;;;;;4978571;28;19922;-58
2021/12/07 14:05:45;;;;;;;;;;;7.40;99.90;;;;;;4979944;28;19917;-59
2021/12/07 14:08:14;;;;;;;;;;;7.40;99.90;;;;;;4983007;28;19924;-58
2021/12/07 14:10:45;;;;;;;;;;;7.40;99.90;;;;;;4984032;28;19937;-58
2021/12/07 14:13:11;;;;;;;;;;;7.50;99.90;;;;;;4982348;28;19918;-59
2021/12/07 14:15:38;;;;;;;;;;;7.50;99.90;;;;;;4982609;28;20293;-59
2021/12/07 14:18:07;;;;;;;;;;;7.50;99.90;;;;;;4989953;28;19929;-58
2021/12/07 14:20:34;;;;;;;;;;;7.50;99.90;;;;;;4983303;28;19985;-58
2021/12/07 14:23:12;;;;;;;;;;;7.50;99.90;;;;;;4983818;28;19914;-58
2021/12/07 14:25:48;;;;;;;;;;;7.60;99.90;;;;;;4983812;28;19920;-58
2021/12/07 14:28:28;;;;;;;;;;;7.60;99.90;;;;;;4981819;28;19919;-59
2021/12/07 14:30:58;;;;;;;;;;;7.50;99.90;;;;;;4982703;28;19965;-59
2021/12/07 14:33:23;;;;;;;;;;;7.60;99.90;;;;;;4997877;28;19922;-59
2021/12/07 14:35:49;;;;;;;;;;;7.60;99.90;;;;;;4983750;28;20753;-57
2021/12/07 14:38:14;;;;;;;;;;;7.60;99.90;;;;;;4982666;28;19918;-59
2021/12/07 14:40:43;;;;;;;;;;;7.60;99.90;;;;;;4983411;28;19933;-59
2021/12/07 14:43:09;;;;;;;;;;;7.50;99.90;;;;;;4982841;28;19952;-58
2021/12/07 14:45:35;;;;;;;;;;;7.50;99.90;;;;;;4982625;28;19972;-59
2021/12/07 14:48:01;;;;;;;;;;;7.60;99.90;;;;;;4983525;28;19913;-59
2021/12/07 14:50:26;;;;;;;;;;;7.60;99.90;;;;;;4980713;28;19918;-57
2021/12/07 14:52:52;;;;;;;;;;;7.60;99.90;;;;;;4981800;28;20005;-59
2021/12/07 14:55:18;;;;;;;;;;;7.50;99.90;;;;;;4987396;28;19922;-56
2021/12/07 14:57:44;;;;;;;;;;;7.60;99.90;;;;;;4986514;28;20012;-57
2021/12/07 15:00:10;;;;;;;;;;;7.50;99.90;;;;;;4982732;28;20045;-58
2021/12/07 15:02:36;;;;;;;;;;;7.50;99.90;;;;;;4981900;28;19925;-58
2021/12/07 15:05:05;;;;;;;;;;;7.60;99.90;;;;;;4984380;28;19989;-57
2021/12/07 15:07:32;;;;;;;;;;;7.50;99.90;;;;;;4982337;28;20351;-59
2021/12/07 15:10:06;;;;;;;;;;;7.50;99.90;;;;;;4980734;28;20318;-58
2021/12/07 15:12:35;;;;;;;;;;;7.50;99.90;;;;;;4983005;28;19992;-58
2021/12/07 15:15:01;;;;;;;;;;;7.50;99.90;;;;;;4980924;28;20061;-58
2021/12/07 15:17:28;;;;;;;;;;;7.60;99.90;;;;;;4989398;28;19992;-58
2021/12/07 15:19:57;;;;;;;;;;;7.60;99.90;;;;;;4983448;28;19918;-57
2021/12/07 15:22:23;;;;;;;;;;;7.50;99.90;;;;;;4988549;28;19921;-58
2021/12/07 15:24:49;;;;;;;;;;;7.50;99.90;;;;;;4983859;28;19914;-57
2021/12/07 15:27:18;;;;;;;;;;;7.60;99.90;;;;;;4982173;28;19922;-59
2021/12/07 15:29:43;;;;;;;;;;;7.60;99.90;;;;;;4984850;28;19918;-60
2021/12/07 15:32:10;;;;;;;;;;;7.60;99.90;;;;;;4984917;28;19925;-57
2021/12/07 15:34:39;;;;;;;;;;;7.50;99.90;;;;;;4986326;28;20018;-57
2021/12/07 15:37:10;;;;;;;;;;;7.50;99.90;;;;;;4984706;28;20537;-57
2021/12/07 15:39:37;;;;;;;;;;;7.50;99.90;;;;;;4980348;28;19921;-57
2021/12/07 15:42:08;;;;;;;;;;;7.50;99.90;;;;;;4986611;28;19921;-57
2021/12/07 15:44:36;;;;;;;;;;;7.50;99.90;;;;;;4989141;28;19913;-58
2021/12/07 15:47:03;;;;;;;;;;;7.50;99.90;;;;;;4982752;28;19922;-59
2021/12/07 15:49:35;;;;;;;;;;;7.50;99.90;;;;;;4983067;28;20314;-58
2021/12/07 15:52:09;;;;;;;;;;;7.50;99.90;;;;;;4983235;28;19922;-59
2021/12/07 15:54:35;;;;;;;;;;;7.50;99.90;;;;;;4983960;28;19963;-58
2021/12/07 15:57:09;;;;;;;;;;;7.50;99.90;;;;;;4987763;28;19914;-58
2021/12/07 15:59:36;;;;;;;;;;;7.50;99.90;;;;;;4988219;28;19987;-57
2021/12/07 16:02:03;;;;;;;;;;;7.50;99.90;;;;;;4986403;28;19914;-57
2021/12/07 16:04:30;;;;;;;;;;;7.50;99.90;;;;;;4986694;28;19914;-58
2021/12/07 16:06:56;;;;;;;;;;;7.50;99.90;;;;;;4986255;28;19918;-58
2021/12/07 16:09:22;;;;;;;;;;;7.50;99.90;;;;;;4984832;28;20298;-59
2021/12/07 16:11:48;;;;;;;;;;;7.40;99.90;;;;;;4986693;28;20318;-58
2021/12/07 16:14:28;;;;;;;;;;;7.40;99.90;;;;;;4986864;28;20462;-59
2021/12/07 16:16:54;;;;;;;;;;;7.40;99.90;;;;;;4984339;28;19918;-58
2021/12/07 16:19:20;;;;;;;;;;;7.30;99.90;;;;;;4987498;28;20323;-59
2021/12/07 16:21:46;;;;;;;;;;;7.40;99.90;;;;;;4984269;28;20433;-58